Time,TemperatureF,DewpointF,PressureIn,WindDirection,WindDirectionDegrees,WindSpeedMPH,WindSpeedGustMPH,Humidity,HourlyPrecipIn,Conditions,Clouds,dailyrainin,SoftwareType,DateUTC
2013-04-13 00:02:00,37.0,29.0,30.11,NW,318,0.0,0.0,74,0.00,,,0.00,,2013-04-13 05:02:00,
2013-04-13 00:12:00,37.0,29.0,30.11,NW,318,0.0,0.0,74,0.00,,,0.00,,2013-04-13 05:12:00,
2013-04-13 00:22:00,37.0,30.0,30.12,NW,318,0.0,0.0,75,0.00,,,0.00,,2013-04-13 05:22:00,
2013-04-13 00:32:00,36.0,29.0,30.12,NW,318,0.0,0.0,76,0.00,,,0.00,,2013-04-13 05:32:00,
2013-04-13 00:42:00,36.0,29.0,30.12,NW,318,0.0,0.0,76,0.00,,,0.00,,2013-04-13 05:42:00,
2013-04-13 00:52:00,35.0,29.0,30.12,NW,318,0.0,0.0,78,0.00,,,0.00,,2013-04-13 05:52:00,
2013-04-13 01:02:00,35.0,29.0,30.12,NW,318,0.0,0.0,79,0.00,,,0.00,,2013-04-13 06:02:00,
2013-04-13 01:12:00,35.0,29.0,30.12,NW,318,0.0,0.0,79,0.00,,,0.00,,2013-04-13 06:12:00,
2013-04-13 01:23:00,35.0,29.0,30.12,NW,318,0.0,0.0,80,0.00,,,0.00,,2013-04-13 06:23:00,
2013-04-13 01:34:00,35.0,30.0,30.12,NW,318,0.0,0.0,81,0.00,,,0.00,,2013-04-13 06:34:00,
2013-04-13 01:55:00,35.0,30.0,30.12,NW,318,0.0,0.0,81,0.00,,,0.00,,2013-04-13 06:55:00,
2013-04-13 02:04:00,35.0,30.0,30.13,NW,318,0.0,0.0,81,0.00,,,0.00,,2013-04-13 07:04:00,
2013-04-13 02:14:00,35.0,30.0,30.13,NW,318,0.0,0.0,81,0.00,,,0.00,,2013-04-13 07:14:00,
2013-04-13 02:23:00,35.0,30.0,30.12,NW,318,0.0,0.0,81,0.00,,,0.00,,2013-04-13 07:23:00,
2013-04-13 02:34:00,35.0,29.0,30.13,NW,318,0.0,0.0,80,0.00,,,0.00,,2013-04-13 07:34:00,
2013-04-13 02:55:00,34.0,28.0,30.13,NW,318,0.0,0.0,80,0.00,,,0.00,,2013-04-13 07:55:00,
2013-04-13 03:05:00,34.0,29.0,30.13,NW,318,0.0,0.0,82,0.00,,,0.00,,2013-04-13 08:05:00,
2013-04-13 03:15:00,34.0,29.0,30.13,NW,318,0.0,0.0,82,0.00,,,0.00,,2013-04-13 08:15:00,
2013-04-13 03:25:00,33.0,28.0,30.12,NW,318,0.0,0.0,82,0.00,,,0.00,,2013-04-13 08:25:00,
2013-04-13 03:34:00,33.0,28.0,30.11,NW,318,0.0,0.0,83,0.00,,,0.00,,2013-04-13 08:34:00,
2013-04-13 03:45:00,33.0,28.0,30.11,NW,318,0.0,0.0,83,0.00,,,0.00,,2013-04-13 08:45:00,
2013-04-13 03:54:00,32.0,27.0,30.12,NW,318,0.0,0.0,83,0.00,,,0.00,,2013-04-13 08:54:00,
2013-04-13 04:04:00,32.0,28.0,30.12,NW,318,0.0,0.0,84,0.00,,,0.00,,2013-04-13 09:04:00,
2013-04-13 04:14:00,32.0,28.0,30.12,NW,318,0.0,0.0,84,0.00,,,0.00,,2013-04-13 09:14:00,
2013-04-13 04:24:00,31.0,27.0,30.13,NW,318,0.0,0.0,84,0.00,,,0.00,,2013-04-13 09:24:00,
2013-04-13 04:35:00,31.0,27.0,30.13,NW,318,0.0,0.0,85,0.00,,,0.00,,2013-04-13 09:35:00,
2013-04-13 04:48:00,31.0,27.0,30.13,NW,318,0.0,0.0,85,0.00,,,0.00,,2013-04-13 09:48:00,
2013-04-13 04:55:00,31.0,27.0,30.13,NW,318,0.0,0.0,86,0.00,,,0.00,,2013-04-13 09:55:00,
2013-04-13 05:04:00,32.0,29.0,30.12,NW,318,0.0,0.0,87,0.00,,,0.00,,2013-04-13 10:04:00,
2013-04-13 05:15:00,32.0,29.0,30.13,NW,318,0.0,0.0,87,0.00,,,0.00,,2013-04-13 10:15:00,
2013-04-13 05:24:00,32.0,29.0,30.13,NW,318,0.0,0.0,87,0.00,,,0.00,,2013-04-13 10:24:00,
2013-04-13 05:35:00,32.0,29.0,30.12,NW,318,0.0,0.0,87,0.00,,,0.00,,2013-04-13 10:35:00,
2013-04-13 05:45:00,32.0,29.0,30.12,NW,318,0.0,0.0,87,0.00,,,0.00,,2013-04-13 10:45:00,
2013-04-13 05:55:00,32.0,29.0,30.13,NW,318,0.0,0.0,87,0.00,,,0.00,,2013-04-13 10:55:00,
2013-04-13 06:05:00,32.0,29.0,30.13,NW,318,0.0,0.0,87,0.00,,,0.00,,2013-04-13 11:05:00,
2013-04-13 06:13:00,32.0,29.0,30.13,NW,318,0.0,0.0,87,0.00,,,0.00,,2013-04-13 11:13:00,
2013-04-13 06:23:00,32.0,28.0,30.12,NW,318,0.0,0.0,86,0.00,,,0.00,,2013-04-13 11:23:00,
2013-04-13 06:33:00,31.0,27.0,30.12,NW,318,0.0,0.0,86,0.00,,,0.00,,2013-04-13 11:33:00,
2013-04-13 06:54:00,31.0,28.0,30.12,NW,318,0.0,0.0,87,0.00,,,0.00,,2013-04-13 11:54:00,
2013-04-13 07:07:00,31.0,28.0,30.12,NW,318,0.0,0.0,87,0.00,,,0.00,,2013-04-13 12:07:00,
2013-04-13 07:14:00,31.0,28.0,30.12,NW,318,0.0,0.0,87,0.00,,,0.00,,2013-04-13 12:14:00,
2013-04-13 07:24:00,31.0,28.0,30.14,NW,318,0.0,0.0,88,0.00,,,0.00,,2013-04-13 12:24:00,
2013-04-13 07:35:00,30.0,27.0,30.14,NW,318,0.0,0.0,88,0.00,,,0.00,,2013-04-13 12:35:00,
2013-04-13 07:46:00,30.0,27.0,30.14,NW,318,0.0,0.0,88,0.00,,,0.00,,2013-04-13 12:46:00,
2013-04-13 07:55:00,31.0,28.0,30.14,NW,318,0.0,0.0,88,0.00,,,0.00,,2013-04-13 12:55:00,
2013-04-13 08:05:00,32.0,29.0,30.14,NW,318,0.0,0.0,89,0.00,,,0.00,,2013-04-13 13:05:00,
2013-04-13 08:14:00,32.0,29.0,30.14,NW,318,0.0,0.0,89,0.00,,,0.00,,2013-04-13 13:14:00,
2013-04-13 08:34:00,35.0,32.0,30.14,NW,318,0.0,0.0,88,0.00,,,0.00,,2013-04-13 13:34:00,
2013-04-13 08:55:00,36.0,32.0,30.14,NW,318,0.0,0.0,84,0.00,,,0.00,,2013-04-13 13:55:00,
2013-04-13 09:04:00,37.0,31.0,30.14,NW,318,0.0,0.0,80,0.00,,,0.00,,2013-04-13 14:04:00,
2013-04-13 09:14:00,37.0,31.0,30.14,NW,318,0.0,0.0,80,0.00,,,0.00,,2013-04-13 14:14:00,
2013-04-13 09:23:00,38.0,32.0,30.14,NW,318,0.0,0.0,78,0.00,,,0.00,,2013-04-13 14:23:00,
2013-04-13 09:35:00,40.0,33.0,30.13,NW,318,0.0,0.0,75,0.00,,,0.00,,2013-04-13 14:35:00,
2013-04-13 09:45:00,40.0,33.0,30.13,NW,318,0.0,0.0,75,0.00,,,0.00,,2013-04-13 14:45:00,
2013-04-13 09:59:00,41.0,32.0,30.14,NW,318,0.0,3.0,70,0.00,,,0.00,,2013-04-13 14:59:00,
2013-04-13 10:14:00,42.0,33.0,30.13,NW,319,0.0,3.0,70,0.00,,,0.00,,2013-04-13 15:14:00,
2013-04-13 10:28:00,43.0,33.0,30.12,NW,326,0.0,4.0,67,0.00,,,0.00,,2013-04-13 15:28:00,
2013-04-13 10:35:00,43.0,32.0,30.11,East,89,3.0,6.0,64,0.00,,,0.00,,2013-04-13 15:35:00,
2013-04-13 10:44:00,43.0,32.0,30.11,East,89,3.0,6.0,64,0.00,,,0.00,,2013-04-13 15:44:00,
2013-04-13 10:57:00,46.0,33.0,30.12,ESE,117,1.0,5.0,60,0.00,,,0.00,,2013-04-13 15:57:00,
2013-04-13 11:05:00,47.0,33.0,30.11,SSE,150,0.0,6.0,59,0.00,,,0.00,,2013-04-13 16:05:00,
2013-04-13 11:14:00,47.0,33.0,30.11,SSE,150,0.0,6.0,59,0.00,,,0.00,,2013-04-13 16:14:00,
2013-04-13 11:24:00,48.0,34.0,30.11,SE,127,2.0,7.0,59,0.00,,,0.00,,2013-04-13 16:24:00,
2013-04-13 11:35:00,50.0,36.0,30.10,SSE,150,2.0,6.0,58,0.00,,,0.00,,2013-04-13 16:35:00,
2013-04-13 11:45:00,50.0,36.0,30.10,SSE,150,2.0,6.0,58,0.00,,,0.00,,2013-04-13 16:45:00,
2013-04-13 11:55:00,51.0,36.0,30.10,SE,130,1.0,6.0,56,0.00,,,0.00,,2013-04-13 16:55:00,
2013-04-13 12:05:00,52.0,36.0,30.09,ESE,121,2.0,8.0,54,0.00,,,0.00,,2013-04-13 17:05:00,
2013-04-13 12:20:00,52.0,36.0,30.09,ESE,121,2.0,8.0,54,0.00,,,0.00,,2013-04-13 17:20:00,
2013-04-13 12:36:00,52.0,35.0,30.07,ESE,113,2.0,7.0,53,0.00,,,0.00,,2013-04-13 17:36:00,
2013-04-13 12:43:00,52.0,35.0,30.07,ESE,113,2.0,7.0,53,0.00,,,0.00,,2013-04-13 17:43:00,
2013-04-13 13:03:00,53.0,36.0,30.06,SE,139,3.0,8.0,52,0.00,,,0.00,,2013-04-13 18:03:00,
2013-04-13 13:14:00,53.0,36.0,30.05,SE,125,4.0,10.0,53,0.00,,,0.00,,2013-04-13 18:14:00,
2013-04-13 13:24:00,53.0,36.0,30.04,SSE,165,1.0,8.0,53,0.00,,,0.00,,2013-04-13 18:24:00,
2013-04-13 13:32:00,54.0,37.0,30.03,SSE,151,3.0,8.0,52,0.00,,,0.00,,2013-04-13 18:32:00,
2013-04-13 13:42:00,54.0,37.0,30.03,SSE,151,3.0,8.0,52,0.00,,,0.00,,2013-04-13 18:42:00,
2013-04-13 13:53:00,55.0,37.0,30.02,SSE,161,4.0,9.0,50,0.00,,,0.00,,2013-04-13 18:53:00,
2013-04-13 14:02:00,55.0,37.0,30.01,SSE,149,6.0,13.0,50,0.00,,,0.00,,2013-04-13 19:02:00,
2013-04-13 14:12:00,55.0,37.0,30.01,SSE,149,6.0,13.0,50,0.00,,,0.00,,2013-04-13 19:12:00,
2013-04-13 14:22:00,55.0,37.0,30.01,SE,146,4.0,10.0,51,0.00,,,0.00,,2013-04-13 19:22:00,
2013-04-13 14:32:00,57.0,38.0,29.99,SE,127,4.0,13.0,49,0.00,,,0.00,,2013-04-13 19:32:00,
2013-04-13 14:42:00,57.0,38.0,29.99,SE,127,4.0,13.0,49,0.00,,,0.00,,2013-04-13 19:42:00,
2013-04-13 14:53:00,57.0,38.0,29.98,ESE,117,3.0,11.0,49,0.00,,,0.00,,2013-04-13 19:53:00,
2013-04-13 15:02:00,57.0,38.0,29.97,SE,141,8.0,14.0,49,0.00,,,0.00,,2013-04-13 20:02:00,
2013-04-13 15:12:00,57.0,38.0,29.97,SE,141,8.0,14.0,49,0.00,,,0.00,,2013-04-13 20:12:00,
2013-04-13 15:22:00,58.0,39.0,29.96,South,169,2.0,13.0,49,0.00,,,0.00,,2013-04-13 20:22:00,
2013-04-13 15:32:00,58.0,39.0,29.94,ESE,117,7.0,13.0,49,0.00,,,0.00,,2013-04-13 20:32:00,
2013-04-13 15:42:00,58.0,39.0,29.94,ESE,117,7.0,13.0,49,0.00,,,0.00,,2013-04-13 20:42:00,
2013-04-13 15:52:00,59.0,40.0,29.93,SE,131,6.0,13.0,50,0.00,,,0.00,,2013-04-13 20:52:00,
2013-04-13 16:02:00,60.0,41.0,29.92,SE,136,6.0,12.0,49,0.00,,,0.00,,2013-04-13 21:02:00,
2013-04-13 16:12:00,60.0,41.0,29.92,SE,136,6.0,12.0,49,0.00,,,0.00,,2013-04-13 21:12:00,
2013-04-13 16:22:00,60.0,41.0,29.91,SE,139,8.0,16.0,49,0.00,,,0.00,,2013-04-13 21:22:00,
2013-04-13 16:32:00,60.0,41.0,29.90,SE,144,7.0,16.0,49,0.00,,,0.00,,2013-04-13 21:32:00,
2013-04-13 16:43:00,60.0,41.0,29.90,SE,144,7.0,16.0,49,0.00,,,0.00,,2013-04-13 21:43:00,
2013-04-13 16:53:00,60.0,41.0,29.89,ESE,103,6.0,14.0,49,0.00,,,0.00,,2013-04-13 21:53:00,
2013-04-13 17:03:00,60.0,41.0,29.89,ESE,123,9.0,14.0,49,0.00,,,0.00,,2013-04-13 22:03:00,
2013-04-13 17:12:00,60.0,41.0,29.89,ESE,123,9.0,14.0,49,0.00,,,0.00,,2013-04-13 22:12:00,
2013-04-13 17:22:00,61.0,42.0,29.87,SE,128,3.0,13.0,50,0.00,,,0.00,,2013-04-13 22:22:00,
2013-04-13 17:33:00,62.0,43.0,29.87,ESE,107,7.0,17.0,49,0.00,,,0.00,,2013-04-13 22:33:00,
2013-04-13 17:42:00,62.0,43.0,29.87,ESE,107,7.0,17.0,49,0.00,,,0.00,,2013-04-13 22:42:00,
2013-04-13 17:53:00,62.0,43.0,29.86,ESE,115,7.0,17.0,49,0.00,,,0.00,,2013-04-13 22:53:00,
2013-04-13 18:02:00,62.0,44.0,29.85,South,176,3.0,14.0,51,0.00,,,0.00,,2013-04-13 23:02:00,
2013-04-13 18:12:00,62.0,44.0,29.85,South,176,3.0,14.0,51,0.00,,,0.00,,2013-04-13 23:12:00,
2013-04-13 18:22:00,62.0,44.0,29.84,ESE,123,4.0,12.0,51,0.00,,,0.00,,2013-04-13 23:22:00,
2013-04-13 18:32:00,62.0,44.0,29.83,SE,135,8.0,15.0,51,0.00,,,0.00,,2013-04-13 23:32:00,
2013-04-13 18:42:00,62.0,44.0,29.83,SE,135,8.0,15.0,51,0.00,,,0.00,,2013-04-13 23:42:00,
2013-04-13 18:53:00,62.0,44.0,29.83,ESE,111,3.0,12.0,52,0.00,,,0.00,,2013-04-13 23:53:00,
2013-04-13 19:02:00,62.0,45.0,29.82,SE,138,5.0,10.0,53,0.00,,,0.00,,2013-04-14 00:02:00,
2013-04-13 19:12:00,62.0,45.0,29.82,SE,138,5.0,10.0,53,0.00,,,0.00,,2013-04-14 00:12:00,
2013-04-13 19:22:00,61.0,44.0,29.81,ESE,113,4.0,9.0,53,0.00,,,0.00,,2013-04-14 00:22:00,
2013-04-13 19:32:00,61.0,44.0,29.81,ESE,109,2.0,8.0,54,0.00,,,0.00,,2013-04-14 00:32:00,
2013-04-13 19:42:00,61.0,44.0,29.81,ESE,109,2.0,8.0,54,0.00,,,0.00,,2013-04-14 00:42:00,
2013-04-13 19:52:00,61.0,44.0,29.81,ESE,109,2.0,8.0,54,0.00,,,0.00,,2013-04-14 00:52:00,
2013-04-13 20:02:00,61.0,45.0,29.81,ESE,119,1.0,8.0,55,0.00,,,0.00,,2013-04-14 01:02:00,
2013-04-13 20:12:00,61.0,45.0,29.81,ESE,119,1.0,8.0,55,0.00,,,0.00,,2013-04-14 01:12:00,
2013-04-13 20:22:00,60.0,45.0,29.80,ESE,117,1.0,7.0,57,0.00,,,0.00,,2013-04-14 01:22:00,
2013-04-13 20:32:00,59.0,44.0,29.80,East,101,1.0,7.0,58,0.00,,,0.00,,2013-04-14 01:32:00,
2013-04-13 20:42:00,59.0,44.0,29.80,East,101,1.0,7.0,58,0.00,,,0.00,,2013-04-14 01:42:00,
2013-04-13 20:53:00,59.0,45.0,29.80,SE,132,1.0,6.0,59,0.00,,,0.00,,2013-04-14 01:53:00,
2013-04-13 21:02:00,58.0,44.0,29.81,SE,126,1.0,6.0,59,0.00,,,0.00,,2013-04-14 02:02:00,
2013-04-13 21:12:00,58.0,44.0,29.81,SE,126,1.0,6.0,59,0.00,,,0.00,,2013-04-14 02:12:00,
2013-04-13 21:22:00,57.0,44.0,29.81,East,86,0.0,4.0,61,0.00,,,0.00,,2013-04-14 02:22:00,
2013-04-13 21:32:00,57.0,44.0,29.82,SE,134,2.0,7.0,62,0.00,,,0.00,,2013-04-14 02:32:00,
2013-04-13 21:42:00,57.0,44.0,29.82,SE,134,2.0,7.0,62,0.00,,,0.00,,2013-04-14 02:42:00,
2013-04-13 21:53:00,57.0,45.0,29.82,SE,133,0.0,5.0,63,0.00,,,0.00,,2013-04-14 02:53:00,
2013-04-13 22:02:00,57.0,45.0,29.81,ESE,121,1.0,4.0,63,0.00,,,0.00,,2013-04-14 03:02:00,
2013-04-13 22:12:00,57.0,45.0,29.81,ESE,121,1.0,4.0,63,0.00,,,0.00,,2013-04-14 03:12:00,
2013-04-13 22:22:00,56.0,44.0,29.82,East,101,0.0,7.0,64,0.00,,,0.00,,2013-04-14 03:22:00,
2013-04-13 22:33:00,55.0,43.0,29.82,SE,134,2.0,9.0,65,0.00,,,0.00,,2013-04-14 03:33:00,
2013-04-13 22:42:00,55.0,43.0,29.82,SE,134,2.0,9.0,65,0.00,,,0.00,,2013-04-14 03:42:00,
2013-04-13 22:53:00,55.0,43.0,29.81,East,82,2.0,7.0,65,0.00,,,0.00,,2013-04-14 03:53:00,
2013-04-13 23:02:00,55.0,43.0,29.80,ESE,116,3.0,9.0,65,0.00,,,0.00,,2013-04-14 04:02:00,
2013-04-13 23:12:00,55.0,43.0,29.80,ESE,116,3.0,9.0,65,0.00,,,0.00,,2013-04-14 04:12:00,
2013-04-13 23:23:00,54.0,43.0,29.80,SE,128,3.0,8.0,66,0.00,,,0.00,,2013-04-14 04:23:00,
2013-04-13 23:32:00,54.0,43.0,29.79,ESE,119,0.0,7.0,67,0.00,,,0.00,,2013-04-14 04:32:00,
2013-04-13 23:42:00,54.0,43.0,29.79,ESE,119,0.0,7.0,67,0.00,,,0.00,,2013-04-14 04:42:00,
2013-04-13 23:52:00,54.0,44.0,29.79,ESE,116,4.0,8.0,68,0.00,,,0.00,,2013-04-14 04:52:00,